Home   Weather   Switzerland   Zürich   Past weeks
Flag for Switzerland

Past Weather in Zürich, Zurich, Switzerland — Yesterday and Last 2 Weeks

Currently: 36 °F. Partly sunny. (Weather station: Zurich-Kloten, Switzerland). See more current weather

Past Weather in Zürich — Graph

°F

Zürich Temperature Yesterday

Maximum temperature yesterday: 48 °F (at 2:50 pm)
Minimum temperature yesterday: 27 °F (at 6:50 am)
Average temperature yesterday: 40 °F

High & Low Weather Summary for the Past Weeks

 TemperatureHumidityPressure
High68 °F (Apr 11, 3:20 pm)100% (Apr 12, 6:20 am)30.39 "Hg (Apr 12, 6:20 am)
Low27 °F (Apr 9, 5:20 am)24% (Apr 4, 4:50 pm)29.74 "Hg (Apr 5, 4:20 pm)
Average42 °F63%30.12 "Hg
* Reported Apr 2 7:20 am — Apr 17 7:20 am, Zürich. Weather by CustomWeather, © 2021

Note: Actual official high and low records may vary slightly from our data, if they occured in-between our weather recording intervals... More about our weather records

Zürich Weather History for the Previous 24 Hours

Scroll right to see more
 ConditionsComfort  
Time TempWeatherWind HumidityBarometerVisibility
7:20 am
Sat, Apr 17
34 °FPartly sunny.5 mph87%30.15 "HgN/A
6:50 am34 °FPartly sunny.5 mph87%30.15 "HgN/A
6:20 am34 °FPassing clouds.5 mph87%30.15 "HgN/A
5:50 am32 °FPassing clouds.3 mph87%30.12 "HgN/A
5:20 am34 °FPassing clouds.5 mph81%30.12 "HgN/A
4:50 am34 °FPassing clouds.5 mph81%30.15 "HgN/A
4:20 am32 °FPassing clouds.5 mph80%30.15 "HgN/A
3:50 am32 °FPassing clouds.6 mph80%30.15 "HgN/A
3:20 am32 °FClear.6 mph80%30.15 "Hg10 mi
2:50 am32 °FClear.6 mph80%30.15 "Hg10 mi
2:20 am34 °FPassing clouds.6 mph75%30.15 "HgN/A
1:50 am34 °FPassing clouds.5 mph75%30.15 "HgN/A
1:20 am36 °FPassing clouds.3 mph70%30.18 "HgN/A
12:50 am37 °FChilly.5 mph65%30.18 "HgN/A
12:20 am37 °FPassing clouds.6 mph65%30.18 "HgN/A
11:50 pm
Fri, Apr 16
37 °FPassing clouds.8 mph60%30.18 "HgN/A
11:20 pm39 °FPassing clouds.10 mph56%30.18 "HgN/A
10:50 pm39 °FPassing clouds.7 mph56%30.18 "HgN/A
10:20 pm41 °FPassing clouds.13 mph53%30.18 "HgN/A
9:50 pm41 °FPassing clouds.17 mph53%30.18 "HgN/A
9:20 pm43 °FPassing clouds.14 mph49%30.15 "HgN/A
8:50 pm43 °FPassing clouds.15 mph49%30.15 "HgN/A
8:20 pm43 °FPassing clouds.15 mph49%30.15 "HgN/A
7:50 pm45 °FScattered clouds.14 mph46%30.12 "HgN/A
7:20 pm46 °FPassing clouds.10 mph40%30.12 "HgN/A
6:50 pm46 °FPassing clouds.10 mph40%30.12 "HgN/A
6:20 pm46 °FPassing clouds.12 mph40%30.12 "HgN/A
5:50 pm48 °FPassing clouds.13 mph37%30.12 "HgN/A
5:20 pm46 °FPassing clouds.13 mph40%30.12 "HgN/A
4:50 pm48 °FPassing clouds.13 mph34%30.12 "HgN/A
4:20 pm46 °FPassing clouds.10 mph40%30.12 "HgN/A
3:50 pm48 °FScattered clouds.10 mph37%30.12 "HgN/A
3:20 pm46 °FScattered clouds.13 mph37%30.15 "HgN/A
2:50 pm48 °FScattered clouds.10 mph37%30.12 "HgN/A
2:20 pm46 °FPassing clouds.13 mph43%30.15 "HgN/A
1:50 pm46 °FPassing clouds.12 mph43%30.15 "HgN/A
1:20 pm46 °FPassing clouds.12 mph46%30.15 "HgN/A
12:50 pm45 °FPassing clouds.13 mph42%30.15 "HgN/A
12:20 pm43 °FPassing clouds.15 mph49%30.15 "HgN/A
11:50 am45 °FPassing clouds.13 mph49%30.15 "HgN/A
11:20 am41 °FPassing clouds.13 mph53%30.18 "HgN/A
10:50 am41 °FPassing clouds.13 mph53%30.18 "HgN/A
10:20 am41 °FPassing clouds.12 mph57%30.18 "HgN/A
9:50 am39 °FPassing clouds.10 mph61%30.18 "HgN/A
9:20 am37 °FPassing clouds.9 mph60%30.18 "HgN/A
8:50 am37 °FPassing clouds.7 mph60%30.18 "HgN/A
8:20 am34 °FPassing clouds.7 mph65%30.18 "HgN/A
Weather by CustomWeather, © 2021

See weather overview